sensor_id;sensor_type;location;lat;lon;timestamp;P1;durP1;ratioP1;P2;durP2;ratioP2
61702;SDS011;47622;47.726;3.298;2022-07-11T00:01:24;2.30;;;1.40;;
61702;SDS011;47622;47.726;3.298;2022-07-11T00:03:50;2.65;;;1.20;;
61702;SDS011;47622;47.726;3.298;2022-07-11T00:06:16;1.48;;;1.08;;
61702;SDS011;47622;47.726;3.298;2022-07-11T00:08:41;4.32;;;1.20;;
61702;SDS011;47622;47.726;3.298;2022-07-11T00:11:08;3.20;;;1.10;;
61702;SDS011;47622;47.726;3.298;2022-07-11T00:13:34;2.75;;;1.35;;
61702;SDS011;47622;47.726;3.298;2022-07-11T00:15:59;2.55;;;1.83;;
61702;SDS011;47622;47.726;3.298;2022-07-11T00:18:25;2.08;;;1.20;;
61702;SDS011;47622;47.726;3.298;2022-07-11T00:20:51;0.88;;;0.85;;
61702;SDS011;47622;47.726;3.298;2022-07-11T00:23:16;5.50;;;1.50;;
61702;SDS011;47622;47.726;3.298;2022-07-11T00:25:43;2.17;;;1.40;;
61702;SDS011;47622;47.726;3.298;2022-07-11T00:28:09;1.50;;;1.33;;
61702;SDS011;47622;47.726;3.298;2022-07-11T00:30:35;2.20;;;1.10;;
61702;SDS011;47622;47.726;3.298;2022-07-11T00:33:00;4.38;;;1.30;;
61702;SDS011;47622;47.726;3.298;2022-07-11T00:35:27;5.45;;;1.20;;
61702;SDS011;47622;47.726;3.298;2022-07-11T00:37:52;4.78;;;1.23;;
61702;SDS011;47622;47.726;3.298;2022-07-11T00:40:18;1.20;;;1.10;;
61702;SDS011;47622;47.726;3.298;2022-07-11T00:42:45;4.82;;;1.50;;
61702;SDS011;47622;47.726;3.298;2022-07-11T00:45:10;3.85;;;1.38;;
61702;SDS011;47622;47.726;3.298;2022-07-11T00:47:36;1.58;;;1.15;;
61702;SDS011;47622;47.726;3.298;2022-07-11T00:50:02;1.30;;;1.20;;
61702;SDS011;47622;47.726;3.298;2022-07-11T00:52:28;3.60;;;1.30;;
61702;SDS011;47622;47.726;3.298;2022-07-11T00:54:56;2.28;;;1.45;;
61702;SDS011;47622;47.726;3.298;2022-07-11T00:57:22;3.10;;;1.30;;
61702;SDS011;47622;47.726;3.298;2022-07-11T00:59:48;1.83;;;1.23;;
61702;SDS011;47622;47.726;3.298;2022-07-11T01:02:14;2.42;;;1.15;;
61702;SDS011;47622;47.726;3.298;2022-07-11T01:04:40;3.60;;;1.38;;
61702;SDS011;47622;47.726;3.298;2022-07-11T01:07:05;3.67;;;1.35;;
61702;SDS011;47622;47.726;3.298;2022-07-11T01:09:31;4.47;;;1.50;;
61702;SDS011;47622;47.726;3.298;2022-07-11T01:12:00;1.63;;;1.20;;
61702;SDS011;47622;47.726;3.298;2022-07-11T01:14:25;3.13;;;1.50;;
61702;SDS011;47622;47.726;3.298;2022-07-11T01:16:51;1.55;;;1.30;;
61702;SDS011;47622;47.726;3.298;2022-07-11T01:19:17;3.60;;;1.73;;
61702;SDS011;47622;47.726;3.298;2022-07-11T01:21:43;3.58;;;1.70;;
61702;SDS011;47622;47.726;3.298;2022-07-11T01:24:14;4.22;;;1.65;;
61702;SDS011;47622;47.726;3.298;2022-07-11T01:29:12;3.22;;;1.50;;
61702;SDS011;47622;47.726;3.298;2022-07-11T01:31:39;2.97;;;1.60;;
61702;SDS011;47622;47.726;3.298;2022-07-11T01:34:06;7.75;;;1.50;;
61702;SDS011;47622;47.726;3.298;2022-07-11T01:36:33;2.15;;;1.58;;
61702;SDS011;47622;47.726;3.298;2022-07-11T01:38:59;3.60;;;1.45;;
61702;SDS011;47622;47.726;3.298;2022-07-11T01:41:25;3.75;;;1.60;;
61702;SDS011;47622;47.726;3.298;2022-07-11T01:43:51;2.50;;;1.50;;
61702;SDS011;47622;47.726;3.298;2022-07-11T01:46:18;2.88;;;1.40;;
61702;SDS011;47622;47.726;3.298;2022-07-11T01:48:44;4.22;;;1.38;;
61702;SDS011;47622;47.726;3.298;2022-07-11T01:51:10;2.75;;;1.30;;
61702;SDS011;47622;47.726;3.298;2022-07-11T01:53:37;4.20;;;1.67;;
61702;SDS011;47622;47.726;3.298;2022-07-11T01:56:03;3.33;;;1.40;;
61702;SDS011;47622;47.726;3.298;2022-07-11T01:58:32;2.65;;;1.40;;
61702;SDS011;47622;47.726;3.298;2022-07-11T02:00:58;5.25;;;1.55;;
61702;SDS011;47622;47.726;3.298;2022-07-11T02:03:23;2.88;;;1.40;;
61702;SDS011;47622;47.726;3.298;2022-07-11T02:05:49;4.22;;;1.50;;
61702;SDS011;47622;47.726;3.298;2022-07-11T02:08:15;7.90;;;1.88;;
61702;SDS011;47622;47.726;3.298;2022-07-11T02:10:48;1.67;;;1.35;;
61702;SDS011;47622;47.726;3.298;2022-07-11T02:13:18;3.72;;;1.67;;
61702;SDS011;47622;47.726;3.298;2022-07-11T02:15:45;3.53;;;1.30;;
61702;SDS011;47622;47.726;3.298;2022-07-11T02:18:13;5.45;;;1.50;;
61702;SDS011;47622;47.726;3.298;2022-07-11T02:20:40;2.20;;;1.30;;
61702;SDS011;47622;47.726;3.298;2022-07-11T02:23:09;1.77;;;1.23;;
61702;SDS011;47622;47.726;3.298;2022-07-11T02:25:35;3.95;;;1.45;;
61702;SDS011;47622;47.726;3.298;2022-07-11T02:28:04;3.03;;;1.30;;
61702;SDS011;47622;47.726;3.298;2022-07-11T02:30:33;2.20;;;1.60;;
61702;SDS011;47622;47.726;3.298;2022-07-11T02:33:02;2.75;;;1.35;;
61702;SDS011;47622;47.726;3.298;2022-07-11T02:35:29;3.22;;;1.27;;
61702;SDS011;47622;47.726;3.298;2022-07-11T02:37:55;2.95;;;1.30;;
61702;SDS011;47622;47.726;3.298;2022-07-11T02:40:21;1.70;;;1.35;;
61702;SDS011;47622;47.726;3.298;2022-07-11T02:42:47;2.33;;;1.20;;
61702;SDS011;47622;47.726;3.298;2022-07-11T02:45:13;2.47;;;1.40;;
61702;SDS011;47622;47.726;3.298;2022-07-11T02:47:39;3.35;;;1.67;;
61702;SDS011;47622;47.726;3.298;2022-07-11T02:50:09;2.22;;;1.50;;
61702;SDS011;47622;47.726;3.298;2022-07-11T02:52:36;2.20;;;1.50;;
61702;SDS011;47622;47.726;3.298;2022-07-11T02:55:03;2.28;;;1.35;;
61702;SDS011;47622;47.726;3.298;2022-07-11T02:57:29;2.97;;;1.45;;
61702;SDS011;47622;47.726;3.298;2022-07-11T03:02:20;1.40;;;1.30;;
61702;SDS011;47622;47.726;3.298;2022-07-11T03:04:46;2.65;;;1.98;;
61702;SDS011;47622;47.726;3.298;2022-07-11T03:07:12;1.80;;;1.27;;
61702;SDS011;47622;47.726;3.298;2022-07-11T03:09:37;1.98;;;1.30;;
61702;SDS011;47622;47.726;3.298;2022-07-11T03:12:03;3.25;;;1.50;;
61702;SDS011;47622;47.726;3.298;2022-07-11T03:14:30;2.83;;;1.40;;
61702;SDS011;47622;47.726;3.298;2022-07-11T03:16:55;1.63;;;1.20;;
61702;SDS011;47622;47.726;3.298;2022-07-11T03:19:21;1.92;;;1.20;;
61702;SDS011;47622;47.726;3.298;2022-07-11T03:21:47;1.83;;;1.30;;
61702;SDS011;47622;47.726;3.298;2022-07-11T03:24:12;2.90;;;1.20;;
61702;SDS011;47622;47.726;3.298;2022-07-11T03:26:38;2.90;;;1.30;;
61702;SDS011;47622;47.726;3.298;2022-07-11T03:29:04;2.65;;;1.45;;
61702;SDS011;47622;47.726;3.298;2022-07-11T03:31:33;2.25;;;1.30;;
61702;SDS011;47622;47.726;3.298;2022-07-11T03:33:59;1.33;;;1.20;;
61702;SDS011;47622;47.726;3.298;2022-07-11T03:36:24;1.73;;;1.23;;
61702;SDS011;47622;47.726;3.298;2022-07-11T03:38:51;1.70;;;1.50;;
61702;SDS011;47622;47.726;3.298;2022-07-11T03:41:17;3.15;;;1.35;;
61702;SDS011;47622;47.726;3.298;2022-07-11T03:43:42;3.15;;;1.48;;
61702;SDS011;47622;47.726;3.298;2022-07-11T03:46:08;3.33;;;1.30;;
61702;SDS011;47622;47.726;3.298;2022-07-11T03:48:34;2.75;;;1.60;;
61702;SDS011;47622;47.726;3.298;2022-07-11T03:51:00;2.53;;;1.23;;
61702;SDS011;47622;47.726;3.298;2022-07-11T03:53:26;2.88;;;1.30;;
61702;SDS011;47622;47.726;3.298;2022-07-11T03:58:18;1.92;;;1.30;;
61702;SDS011;47622;47.726;3.298;2022-07-11T04:00:43;2.30;;;1.17;;
61702;SDS011;47622;47.726;3.298;2022-07-11T04:03:09;3.72;;;1.40;;
61702;SDS011;47622;47.726;3.298;2022-07-11T04:05:35;1.75;;;1.30;;
61702;SDS011;47622;47.726;3.298;2022-07-11T04:08:01;1.70;;;1.50;;
61702;SDS011;47622;47.726;3.298;2022-07-11T04:10:27;4.57;;;1.40;;
61702;SDS011;47622;47.726;3.298;2022-07-11T04:12:53;1.30;;;1.20;;
61702;SDS011;47622;47.726;3.298;2022-07-11T04:15:19;6.13;;;1.40;;
61702;SDS011;47622;47.726;3.298;2022-07-11T04:17:45;1.70;;;1.25;;
61702;SDS011;47622;47.726;3.298;2022-07-11T04:20:11;1.23;;;1.05;;
61702;SDS011;47622;47.726;3.298;2022-07-11T04:22:36;3.47;;;1.38;;
61702;SDS011;47622;47.726;3.298;2022-07-11T04:25:03;3.85;;;1.42;;
61702;SDS011;47622;47.726;3.298;2022-07-11T04:27:29;2.22;;;1.50;;
61702;SDS011;47622;47.726;3.298;2022-07-11T04:29:54;1.60;;;1.30;;
61702;SDS011;47622;47.726;3.298;2022-07-11T04:32:23;1.48;;;1.38;;
61702;SDS011;47622;47.726;3.298;2022-07-11T04:39:43;2.38;;;1.60;;
61702;SDS011;47622;47.726;3.298;2022-07-11T04:42:12;2.25;;;1.52;;
61702;SDS011;47622;47.726;3.298;2022-07-11T04:44:38;2.17;;;1.50;;
61702;SDS011;47622;47.726;3.298;2022-07-11T04:47:04;2.83;;;1.33;;
61702;SDS011;47622;47.726;3.298;2022-07-11T04:49:29;1.40;;;1.30;;
61702;SDS011;47622;47.726;3.298;2022-07-11T04:54:22;3.08;;;1.50;;
61702;SDS011;47622;47.726;3.298;2022-07-11T04:56:48;1.92;;;1.42;;
61702;SDS011;47622;47.726;3.298;2022-07-11T04:59:13;2.72;;;1.50;;
61702;SDS011;47622;47.726;3.298;2022-07-11T05:01:39;2.40;;;1.50;;
61702;SDS011;47622;47.726;3.298;2022-07-11T05:04:06;2.10;;;1.45;;
61702;SDS011;47622;47.726;3.298;2022-07-11T05:06:32;1.73;;;1.60;;
61702;SDS011;47622;47.726;3.298;2022-07-11T05:08:59;2.80;;;1.70;;
61702;SDS011;47622;47.726;3.298;2022-07-11T05:11:24;2.00;;;1.80;;
61702;SDS011;47622;47.726;3.298;2022-07-11T05:13:51;3.17;;;1.60;;
61702;SDS011;47622;47.726;3.298;2022-07-11T05:16:16;2.00;;;1.80;;
61702;SDS011;47622;47.726;3.298;2022-07-11T05:18:42;2.05;;;1.70;;
61702;SDS011;47622;47.726;3.298;2022-07-11T05:21:08;2.17;;;1.63;;
61702;SDS011;47622;47.726;3.298;2022-07-11T05:23:33;3.03;;;1.95;;
61702;SDS011;47622;47.726;3.298;2022-07-11T05:25:59;3.28;;;1.90;;
61702;SDS011;47622;47.726;3.298;2022-07-11T05:28:25;3.28;;;1.88;;
61702;SDS011;47622;47.726;3.298;2022-07-11T05:30:50;2.47;;;2.03;;
61702;SDS011;47622;47.726;3.298;2022-07-11T05:33:16;2.28;;;2.08;;
61702;SDS011;47622;47.726;3.298;2022-07-11T05:35:42;3.80;;;2.33;;
61702;SDS011;47622;47.726;3.298;2022-07-11T05:38:07;3.70;;;2.08;;
61702;SDS011;47622;47.726;3.298;2022-07-11T05:40:33;3.15;;;2.28;;
61702;SDS011;47622;47.726;3.298;2022-07-11T05:42:59;2.92;;;2.05;;
61702;SDS011;47622;47.726;3.298;2022-07-11T05:45:26;2.95;;;1.90;;
61702;SDS011;47622;47.726;3.298;2022-07-11T05:47:52;4.35;;;1.98;;
61702;SDS011;47622;47.726;3.298;2022-07-11T05:50:18;1.98;;;1.80;;
61702;SDS011;47622;47.726;3.298;2022-07-11T05:52:43;2.10;;;1.90;;
61702;SDS011;47622;47.726;3.298;2022-07-11T05:55:09;2.05;;;1.70;;
61702;SDS011;47622;47.726;3.298;2022-07-11T05:57:35;4.10;;;1.80;;
61702;SDS011;47622;47.726;3.298;2022-07-11T06:00:01;3.55;;;2.10;;
61702;SDS011;47622;47.726;3.298;2022-07-11T06:02:27;3.97;;;2.05;;
61702;SDS011;47622;47.726;3.298;2022-07-11T06:04:53;3.28;;;1.80;;
61702;SDS011;47622;47.726;3.298;2022-07-11T06:07:19;1.80;;;1.70;;
61702;SDS011;47622;47.726;3.298;2022-07-11T06:10:03;1.70;;;1.60;;
61702;SDS011;47622;47.726;3.298;2022-07-11T06:12:29;1.90;;;1.80;;
61702;SDS011;47622;47.726;3.298;2022-07-11T06:14:54;5.93;;;1.90;;
61702;SDS011;47622;47.726;3.298;2022-07-11T06:17:20;2.85;;;1.70;;
61702;SDS011;47622;47.726;3.298;2022-07-11T06:20:15;2.67;;;1.98;;
61702;SDS011;47622;47.726;3.298;2022-07-11T06:22:47;1.88;;;1.70;;
61702;SDS011;47622;47.726;3.298;2022-07-11T06:25:13;5.78;;;1.85;;
61702;SDS011;47622;47.726;3.298;2022-07-11T06:27:41;2.60;;;1.65;;
61702;SDS011;47622;47.726;3.298;2022-07-11T06:30:07;3.38;;;1.40;;
61702;SDS011;47622;47.726;3.298;2022-07-11T06:32:33;2.03;;;1.60;;
61702;SDS011;47622;47.726;3.298;2022-07-11T06:34:58;2.50;;;1.35;;
61702;SDS011;47622;47.726;3.298;2022-07-11T06:39:50;2.45;;;1.20;;
61702;SDS011;47622;47.726;3.298;2022-07-11T06:44:43;2.28;;;1.00;;
61702;SDS011;47622;47.726;3.298;2022-07-11T06:47:11;2.33;;;1.42;;
61702;SDS011;47622;47.726;3.298;2022-07-11T06:49:37;2.97;;;1.30;;
61702;SDS011;47622;47.726;3.298;2022-07-11T06:54:29;3.15;;;1.77;;
61702;SDS011;47622;47.726;3.298;2022-07-11T06:56:55;3.00;;;1.60;;
61702;SDS011;47622;47.726;3.298;2022-07-11T06:59:21;4.03;;;1.38;;
61702;SDS011;47622;47.726;3.298;2022-07-11T07:01:47;1.77;;;1.20;;
61702;SDS011;47622;47.726;3.298;2022-07-11T07:04:12;1.92;;;1.55;;
61702;SDS011;47622;47.726;3.298;2022-07-11T07:06:38;4.93;;;1.38;;
61702;SDS011;47622;47.726;3.298;2022-07-11T07:09:06;1.58;;;1.33;;
61702;SDS011;47622;47.726;3.298;2022-07-11T07:11:33;3.50;;;1.33;;
61702;SDS011;47622;47.726;3.298;2022-07-11T07:13:59;3.13;;;1.33;;
61702;SDS011;47622;47.726;3.298;2022-07-11T07:16:25;3.40;;;1.20;;
61702;SDS011;47622;47.726;3.298;2022-07-11T07:18:51;2.58;;;1.20;;
61702;SDS011;47622;47.726;3.298;2022-07-11T07:21:16;1.88;;;1.15;;
61702;SDS011;47622;47.726;3.298;2022-07-11T07:23:42;2.47;;;1.00;;
61702;SDS011;47622;47.726;3.298;2022-07-11T07:33:26;2.65;;;1.13;;
61702;SDS011;47622;47.726;3.298;2022-07-11T07:35:54;2.03;;;1.30;;
61702;SDS011;47622;47.726;3.298;2022-07-11T07:38:20;1.90;;;1.10;;
61702;SDS011;47622;47.726;3.298;2022-07-11T07:40:50;3.33;;;1.10;;
61702;SDS011;47622;47.726;3.298;2022-07-11T07:43:16;1.38;;;1.10;;
61702;SDS011;47622;47.726;3.298;2022-07-11T07:45:42;0.93;;;0.80;;
61702;SDS011;47622;47.726;3.298;2022-07-11T07:48:10;3.78;;;1.17;;
61702;SDS011;47622;47.726;3.298;2022-07-11T07:53:04;3.35;;;1.20;;
61702;SDS011;47622;47.726;3.298;2022-07-11T07:55:31;1.60;;;1.08;;
61702;SDS011;47622;47.726;3.298;2022-07-11T07:58:02;2.40;;;1.17;;
61702;SDS011;47622;47.726;3.298;2022-07-11T08:00:28;1.17;;;1.00;;
61702;SDS011;47622;47.726;3.298;2022-07-11T08:03:12;1.10;;;0.93;;
61702;SDS011;47622;47.726;3.298;2022-07-11T08:05:41;4.32;;;1.08;;
61702;SDS011;47622;47.726;3.298;2022-07-11T08:08:07;2.10;;;1.00;;
61702;SDS011;47622;47.726;3.298;2022-07-11T08:10:33;1.55;;;1.20;;
61702;SDS011;47622;47.726;3.298;2022-07-11T08:15:28;3.22;;;1.20;;
61702;SDS011;47622;47.726;3.298;2022-07-11T08:17:56;1.88;;;0.90;;
61702;SDS011;47622;47.726;3.298;2022-07-11T08:20:21;2.85;;;0.98;;
61702;SDS011;47622;47.726;3.298;2022-07-11T08:22:47;2.00;;;1.10;;
61702;SDS011;47622;47.726;3.298;2022-07-11T08:25:13;1.58;;;0.82;;
61702;SDS011;47622;47.726;3.298;2022-07-11T08:30:06;1.63;;;1.05;;
61702;SDS011;47622;47.726;3.298;2022-07-11T08:32:33;1.05;;;0.90;;
61702;SDS011;47622;47.726;3.298;2022-07-11T08:37:25;2.90;;;1.33;;
61702;SDS011;47622;47.726;3.298;2022-07-11T08:44:47;2.35;;;0.93;;
61702;SDS011;47622;47.726;3.298;2022-07-11T08:49:39;1.60;;;1.10;;
61702;SDS011;47622;47.726;3.298;2022-07-11T08:52:07;4.72;;;1.00;;
61702;SDS011;47622;47.726;3.298;2022-07-11T08:56:59;2.97;;;0.88;;
61702;SDS011;47622;47.726;3.298;2022-07-11T09:01:54;2.83;;;1.10;;
61702;SDS011;47622;47.726;3.298;2022-07-11T09:06:48;3.88;;;1.00;;
61702;SDS011;47622;47.726;3.298;2022-07-11T09:09:14;1.48;;;0.88;;
61702;SDS011;47622;47.726;3.298;2022-07-11T09:11:50;2.20;;;0.90;;
61702;SDS011;47622;47.726;3.298;2022-07-11T09:19:26;2.35;;;1.00;;
61702;SDS011;47622;47.726;3.298;2022-07-11T09:27:43;1.15;;;0.88;;
61702;SDS011;47622;47.726;3.298;2022-07-11T09:30:26;1.42;;;0.90;;
61702;SDS011;47622;47.726;3.298;2022-07-11T09:33:04;1.30;;;1.00;;
61702;SDS011;47622;47.726;3.298;2022-07-11T09:35:39;2.17;;;1.02;;
61702;SDS011;47622;47.726;3.298;2022-07-11T09:40:33;1.38;;;0.77;;
61702;SDS011;47622;47.726;3.298;2022-07-11T09:43:01;2.53;;;0.90;;
61702;SDS011;47622;47.726;3.298;2022-07-11T09:50:24;0.90;;;0.90;;
61702;SDS011;47622;47.726;3.298;2022-07-11T09:55:24;2.78;;;1.10;;
61702;SDS011;47622;47.726;3.298;2022-07-11T09:57:50;3.10;;;1.17;;
61702;SDS011;47622;47.726;3.298;2022-07-11T10:00:16;2.10;;;1.23;;
61702;SDS011;47622;47.726;3.298;2022-07-11T10:02:42;1.90;;;1.00;;
61702;SDS011;47622;47.726;3.298;2022-07-11T10:07:33;1.20;;;1.05;;
61702;SDS011;47622;47.726;3.298;2022-07-11T10:09:59;2.72;;;1.05;;
61702;SDS011;47622;47.726;3.298;2022-07-11T10:12:29;3.45;;;1.45;;
61702;SDS011;47622;47.726;3.298;2022-07-11T10:23:10;4.38;;;1.08;;
61702;SDS011;47622;47.726;3.298;2022-07-11T10:25:54;1.15;;;0.95;;
61702;SDS011;47622;47.726;3.298;2022-07-11T10:28:33;2.25;;;0.98;;
61702;SDS011;47622;47.726;3.298;2022-07-11T10:31:22;1.08;;;0.90;;
61702;SDS011;47622;47.726;3.298;2022-07-11T10:36:46;3.08;;;1.10;;
61702;SDS011;47622;47.726;3.298;2022-07-11T10:39:13;3.72;;;0.90;;
61702;SDS011;47622;47.726;3.298;2022-07-11T10:41:43;1.42;;;0.90;;
61702;SDS011;47622;47.726;3.298;2022-07-11T10:44:08;1.35;;;0.90;;
61702;SDS011;47622;47.726;3.298;2022-07-11T10:57:40;1.38;;;0.95;;
61702;SDS011;47622;47.726;3.298;2022-07-11T11:00:22;4.68;;;0.85;;
61702;SDS011;47622;47.726;3.298;2022-07-11T11:03:01;2.58;;;1.00;;
61702;SDS011;47622;47.726;3.298;2022-07-11T11:05:40;2.30;;;0.80;;
61702;SDS011;47622;47.726;3.298;2022-07-11T11:10:57;1.02;;;0.90;;
61702;SDS011;47622;47.726;3.298;2022-07-11T11:13:25;1.17;;;0.73;;
61702;SDS011;47622;47.726;3.298;2022-07-11T11:15:54;2.22;;;1.10;;
61702;SDS011;47622;47.726;3.298;2022-07-11T11:25:52;4.75;;;0.85;;
61702;SDS011;47622;47.726;3.298;2022-07-11T11:28:21;2.00;;;1.00;;
61702;SDS011;47622;47.726;3.298;2022-07-11T11:30:54;1.80;;;0.90;;
61702;SDS011;47622;47.726;3.298;2022-07-11T11:33:25;1.95;;;1.00;;
61702;SDS011;47622;47.726;3.298;2022-07-11T11:36:00;1.73;;;0.90;;
61702;SDS011;47622;47.726;3.298;2022-07-11T11:38:26;1.65;;;0.85;;
61702;SDS011;47622;47.726;3.298;2022-07-11T11:40:52;1.85;;;0.90;;
61702;SDS011;47622;47.726;3.298;2022-07-11T11:43:21;1.27;;;0.90;;
61702;SDS011;47622;47.726;3.298;2022-07-11T11:45:48;1.77;;;0.80;;
61702;SDS011;47622;47.726;3.298;2022-07-11T11:48:34;0.87;;;0.77;;
61702;SDS011;47622;47.726;3.298;2022-07-11T11:51:05;1.10;;;1.10;;
61702;SDS011;47622;47.726;3.298;2022-07-11T11:53:41;1.35;;;1.20;;
61702;SDS011;47622;47.726;3.298;2022-07-11T11:56:19;1.65;;;1.05;;
61702;SDS011;47622;47.726;3.298;2022-07-11T11:58:55;1.35;;;1.17;;
61702;SDS011;47622;47.726;3.298;2022-07-11T12:01:26;5.20;;;1.00;;
61702;SDS011;47622;47.726;3.298;2022-07-11T12:08:50;1.10;;;0.95;;
61702;SDS011;47622;47.726;3.298;2022-07-11T12:11:17;2.40;;;1.00;;
61702;SDS011;47622;47.726;3.298;2022-07-11T12:13:43;1.55;;;0.90;;
61702;SDS011;47622;47.726;3.298;2022-07-11T12:16:16;3.45;;;0.88;;
61702;SDS011;47622;47.726;3.298;2022-07-11T12:21:33;3.67;;;1.08;;
61702;SDS011;47622;47.726;3.298;2022-07-11T12:23:59;1.25;;;0.90;;
61702;SDS011;47622;47.726;3.298;2022-07-11T12:26:35;3.97;;;1.10;;
61702;SDS011;47622;47.726;3.298;2022-07-11T12:34:05;2.25;;;0.95;;
61702;SDS011;47622;47.726;3.298;2022-07-11T12:36:34;1.55;;;0.98;;
61702;SDS011;47622;47.726;3.298;2022-07-11T12:41:25;1.95;;;0.90;;
61702;SDS011;47622;47.726;3.298;2022-07-11T12:43:51;3.05;;;1.10;;
61702;SDS011;47622;47.726;3.298;2022-07-11T12:46:39;2.65;;;1.02;;
61702;SDS011;47622;47.726;3.298;2022-07-11T12:49:06;3.72;;;1.20;;
61702;SDS011;47622;47.726;3.298;2022-07-11T12:54:06;2.17;;;1.10;;
61702;SDS011;47622;47.726;3.298;2022-07-11T12:56:34;1.58;;;0.90;;
61702;SDS011;47622;47.726;3.298;2022-07-11T12:59:01;1.63;;;0.98;;
61702;SDS011;47622;47.726;3.298;2022-07-11T13:01:28;1.15;;;0.90;;
61702;SDS011;47622;47.726;3.298;2022-07-11T13:03:55;1.00;;;0.90;;
61702;SDS011;47622;47.726;3.298;2022-07-11T13:06:21;5.65;;;1.38;;
61702;SDS011;47622;47.726;3.298;2022-07-11T13:09:05;2.58;;;1.10;;
61702;SDS011;47622;47.726;3.298;2022-07-11T13:11:34;3.25;;;1.02;;
61702;SDS011;47622;47.726;3.298;2022-07-11T13:14:00;2.20;;;1.08;;
61702;SDS011;47622;47.726;3.298;2022-07-11T13:16:26;3.55;;;1.20;;
61702;SDS011;47622;47.726;3.298;2022-07-11T13:18:52;5.82;;;1.15;;
61702;SDS011;47622;47.726;3.298;2022-07-11T13:23:44;2.25;;;0.90;;
61702;SDS011;47622;47.726;3.298;2022-07-11T13:26:10;3.35;;;1.17;;
61702;SDS011;47622;47.726;3.298;2022-07-11T13:28:37;2.42;;;1.20;;
61702;SDS011;47622;47.726;3.298;2022-07-11T13:33:32;4.13;;;1.83;;
61702;SDS011;47622;47.726;3.298;2022-07-11T13:35:58;1.25;;;0.93;;
61702;SDS011;47622;47.726;3.298;2022-07-11T13:40:49;2.00;;;1.20;;
61702;SDS011;47622;47.726;3.298;2022-07-11T13:43:15;2.15;;;1.17;;
61702;SDS011;47622;47.726;3.298;2022-07-11T13:45:41;2.25;;;1.00;;
61702;SDS011;47622;47.726;3.298;2022-07-11T13:50:35;2.35;;;1.33;;
61702;SDS011;47622;47.726;3.298;2022-07-11T13:53:00;1.33;;;0.90;;
61702;SDS011;47622;47.726;3.298;2022-07-11T13:55:26;2.58;;;1.10;;
61702;SDS011;47622;47.726;3.298;2022-07-11T13:57:59;1.25;;;1.10;;
61702;SDS011;47622;47.726;3.298;2022-07-11T14:00:30;3.08;;;1.23;;
61702;SDS011;47622;47.726;3.298;2022-07-11T14:02:57;1.42;;;1.00;;
61702;SDS011;47622;47.726;3.298;2022-07-11T14:05:22;1.45;;;0.90;;
61702;SDS011;47622;47.726;3.298;2022-07-11T14:07:48;1.20;;;1.10;;
61702;SDS011;47622;47.726;3.298;2022-07-11T14:10:14;3.30;;;1.20;;
61702;SDS011;47622;47.726;3.298;2022-07-11T14:12:42;3.40;;;1.10;;
61702;SDS011;47622;47.726;3.298;2022-07-11T14:17:37;1.23;;;1.00;;
61702;SDS011;47622;47.726;3.298;2022-07-11T14:20:03;2.75;;;1.00;;
61702;SDS011;47622;47.726;3.298;2022-07-11T14:22:29;1.13;;;0.90;;
61702;SDS011;47622;47.726;3.298;2022-07-11T14:29:47;1.27;;;0.95;;
61702;SDS011;47622;47.726;3.298;2022-07-11T14:34:39;0.98;;;0.90;;
61702;SDS011;47622;47.726;3.298;2022-07-11T14:37:06;1.27;;;0.98;;
61702;SDS011;47622;47.726;3.298;2022-07-11T14:39:32;3.95;;;0.90;;
61702;SDS011;47622;47.726;3.298;2022-07-11T14:41:59;3.65;;;1.02;;
61702;SDS011;47622;47.726;3.298;2022-07-11T14:44:25;3.85;;;0.98;;
61702;SDS011;47622;47.726;3.298;2022-07-11T14:49:17;2.80;;;1.33;;
61702;SDS011;47622;47.726;3.298;2022-07-11T14:51:43;1.85;;;0.88;;
61702;SDS011;47622;47.726;3.298;2022-07-11T14:54:09;2.13;;;1.00;;
61702;SDS011;47622;47.726;3.298;2022-07-11T14:56:35;1.85;;;1.05;;
61702;SDS011;47622;47.726;3.298;2022-07-11T15:01:29;1.27;;;0.90;;
61702;SDS011;47622;47.726;3.298;2022-07-11T15:03:55;1.30;;;1.10;;
61702;SDS011;47622;47.726;3.298;2022-07-11T15:06:20;1.00;;;0.90;;
61702;SDS011;47622;47.726;3.298;2022-07-11T15:09:07;6.05;;;1.30;;
61702;SDS011;47622;47.726;3.298;2022-07-11T15:11:52;1.40;;;0.70;;
61702;SDS011;47622;47.726;3.298;2022-07-11T15:14:35;1.27;;;0.80;;
61702;SDS011;47622;47.726;3.298;2022-07-11T15:17:01;2.15;;;0.80;;
61702;SDS011;47622;47.726;3.298;2022-07-11T15:19:29;2.15;;;0.80;;
61702;SDS011;47622;47.726;3.298;2022-07-11T15:21:55;4.00;;;1.00;;
61702;SDS011;47622;47.726;3.298;2022-07-11T15:24:21;2.63;;;1.00;;
61702;SDS011;47622;47.726;3.298;2022-07-11T15:26:46;1.92;;;1.00;;
61702;SDS011;47622;47.726;3.298;2022-07-11T15:29:12;1.75;;;1.10;;
61702;SDS011;47622;47.726;3.298;2022-07-11T15:31:38;0.93;;;0.90;;
61702;SDS011;47622;47.726;3.298;2022-07-11T15:34:04;1.60;;;0.90;;
61702;SDS011;47622;47.726;3.298;2022-07-11T15:36:29;2.85;;;0.90;;
61702;SDS011;47622;47.726;3.298;2022-07-11T15:38:55;2.55;;;1.00;;
61702;SDS011;47622;47.726;3.298;2022-07-11T15:41:21;1.58;;;1.00;;
61702;SDS011;47622;47.726;3.298;2022-07-11T15:43:47;2.38;;;1.00;;
61702;SDS011;47622;47.726;3.298;2022-07-11T15:46:13;1.63;;;1.30;;
61702;SDS011;47622;47.726;3.298;2022-07-11T15:48:39;3.58;;;1.20;;
61702;SDS011;47622;47.726;3.298;2022-07-11T15:51:05;2.58;;;0.93;;
61702;SDS011;47622;47.726;3.298;2022-07-11T15:53:31;0.70;;;0.70;;
61702;SDS011;47622;47.726;3.298;2022-07-11T15:55:58;1.23;;;0.77;;
61702;SDS011;47622;47.726;3.298;2022-07-11T15:58:27;2.28;;;0.93;;
61702;SDS011;47622;47.726;3.298;2022-07-11T16:00:54;0.93;;;0.80;;
61702;SDS011;47622;47.726;3.298;2022-07-11T16:03:19;1.77;;;0.82;;
61702;SDS011;47622;47.726;3.298;2022-07-11T16:05:47;1.95;;;0.90;;
61702;SDS011;47622;47.726;3.298;2022-07-11T16:08:13;1.13;;;0.95;;
61702;SDS011;47622;47.726;3.298;2022-07-11T16:10:39;3.25;;;0.93;;
61702;SDS011;47622;47.726;3.298;2022-07-11T16:13:05;2.13;;;1.00;;
61702;SDS011;47622;47.726;3.298;2022-07-11T16:15:32;2.90;;;1.00;;
61702;SDS011;47622;47.726;3.298;2022-07-11T16:17:58;2.00;;;0.85;;
61702;SDS011;47622;47.726;3.298;2022-07-11T16:20:24;6.25;;;0.98;;
61702;SDS011;47622;47.726;3.298;2022-07-11T16:22:50;2.15;;;0.90;;
61702;SDS011;47622;47.726;3.298;2022-07-11T16:25:16;3.53;;;0.98;;
61702;SDS011;47622;47.726;3.298;2022-07-11T16:27:42;2.00;;;1.20;;
61702;SDS011;47622;47.726;3.298;2022-07-11T16:30:08;2.20;;;0.90;;
61702;SDS011;47622;47.726;3.298;2022-07-11T16:32:34;1.38;;;0.98;;
61702;SDS011;47622;47.726;3.298;2022-07-11T16:35:00;2.15;;;0.93;;
61702;SDS011;47622;47.726;3.298;2022-07-11T16:37:26;3.53;;;1.00;;
61702;SDS011;47622;47.726;3.298;2022-07-11T16:39:52;1.10;;;1.00;;
61702;SDS011;47622;47.726;3.298;2022-07-11T16:42:36;2.25;;;1.00;;
61702;SDS011;47622;47.726;3.298;2022-07-11T16:45:20;1.60;;;1.02;;
61702;SDS011;47622;47.726;3.298;2022-07-11T16:47:47;1.80;;;0.95;;
61702;SDS011;47622;47.726;3.298;2022-07-11T16:50:16;2.42;;;0.80;;
61702;SDS011;47622;47.726;3.298;2022-07-11T16:52:42;3.72;;;0.90;;
61702;SDS011;47622;47.726;3.298;2022-07-11T16:55:08;0.82;;;0.75;;
61702;SDS011;47622;47.726;3.298;2022-07-11T16:57:35;2.67;;;1.00;;
61702;SDS011;47622;47.726;3.298;2022-07-11T17:00:01;1.92;;;0.95;;
61702;SDS011;47622;47.726;3.298;2022-07-11T17:02:28;4.13;;;1.20;;
61702;SDS011;47622;47.726;3.298;2022-07-11T17:04:54;2.72;;;0.90;;
61702;SDS011;47622;47.726;3.298;2022-07-11T17:07:20;2.45;;;1.73;;
61702;SDS011;47622;47.726;3.298;2022-07-11T17:09:45;2.75;;;1.00;;
61702;SDS011;47622;47.726;3.298;2022-07-11T17:12:12;1.80;;;0.88;;
61702;SDS011;47622;47.726;3.298;2022-07-11T17:14:38;3.05;;;0.98;;
61702;SDS011;47622;47.726;3.298;2022-07-11T17:17:03;1.40;;;0.98;;
61702;SDS011;47622;47.726;3.298;2022-07-11T17:19:29;1.95;;;0.93;;
61702;SDS011;47622;47.726;3.298;2022-07-11T17:21:55;5.88;;;1.20;;